sensor_id;sensor_type;location;lat;lon;timestamp;P1;durP1;ratioP1;P2;durP2;ratioP2
68718;SDS011;55696;52.138;5.444;2023-01-10T00:00:41;13.18;;;2.45;;
68718;SDS011;55696;52.138;5.444;2023-01-10T00:03:09;9.13;;;2.42;;
68718;SDS011;55696;52.138;5.444;2023-01-10T00:05:38;11.27;;;2.35;;
68718;SDS011;55696;52.138;5.444;2023-01-10T00:08:06;11.43;;;2.30;;
68718;SDS011;55696;52.138;5.444;2023-01-10T00:10:34;12.55;;;2.45;;
68718;SDS011;55696;52.138;5.444;2023-01-10T00:13:00;13.15;;;2.17;;
68718;SDS011;55696;52.138;5.444;2023-01-10T00:15:46;16.25;;;2.35;;
68718;SDS011;55696;52.138;5.444;2023-01-10T00:18:13;13.00;;;2.38;;
68718;SDS011;55696;52.138;5.444;2023-01-10T00:20:40;19.73;;;2.50;;
68718;SDS011;55696;52.138;5.444;2023-01-10T00:23:09;13.02;;;2.10;;
68718;SDS011;55696;52.138;5.444;2023-01-10T00:25:36;11.27;;;2.33;;
68718;SDS011;55696;52.138;5.444;2023-01-10T00:28:03;11.45;;;2.35;;
68718;SDS011;55696;52.138;5.444;2023-01-10T00:30:48;9.90;;;2.15;;
68718;SDS011;55696;52.138;5.444;2023-01-10T00:33:20;7.07;;;2.10;;
68718;SDS011;55696;52.138;5.444;2023-01-10T00:35:47;13.75;;;2.33;;
68718;SDS011;55696;52.138;5.444;2023-01-10T00:38:14;21.35;;;2.65;;
68718;SDS011;55696;52.138;5.444;2023-01-10T00:40:42;6.78;;;2.33;;
68718;SDS011;55696;52.138;5.444;2023-01-10T00:43:09;21.35;;;2.58;;
68718;SDS011;55696;52.138;5.444;2023-01-10T00:45:54;14.10;;;2.73;;
68718;SDS011;55696;52.138;5.444;2023-01-10T00:48:23;17.25;;;3.08;;
68718;SDS011;55696;52.138;5.444;2023-01-10T00:50:49;9.07;;;2.00;;
68718;SDS011;55696;52.138;5.444;2023-01-10T00:53:16;9.45;;;2.10;;
68718;SDS011;55696;52.138;5.444;2023-01-10T00:55:43;11.57;;;2.38;;
68718;SDS011;55696;52.138;5.444;2023-01-10T00:58:11;12.67;;;2.43;;
68718;SDS011;55696;52.138;5.444;2023-01-10T01:00:39;19.55;;;2.92;;
68718;SDS011;55696;52.138;5.444;2023-01-10T01:03:07;15.27;;;2.47;;
68718;SDS011;55696;52.138;5.444;2023-01-10T01:05:39;12.57;;;2.03;;
68718;SDS011;55696;52.138;5.444;2023-01-10T01:08:09;14.32;;;2.80;;
68718;SDS011;55696;52.138;5.444;2023-01-10T01:10:37;9.67;;;2.10;;
68718;SDS011;55696;52.138;5.444;2023-01-10T01:13:05;8.23;;;1.65;;
68718;SDS011;55696;52.138;5.444;2023-01-10T01:15:43;13.98;;;2.67;;
68718;SDS011;55696;52.138;5.444;2023-01-10T01:18:11;13.98;;;2.60;;
68718;SDS011;55696;52.138;5.444;2023-01-10T01:20:39;8.77;;;1.92;;
68718;SDS011;55696;52.138;5.444;2023-01-10T01:23:07;16.20;;;2.27;;
68718;SDS011;55696;52.138;5.444;2023-01-10T01:25:34;9.48;;;2.03;;
68718;SDS011;55696;52.138;5.444;2023-01-10T01:28:01;16.10;;;2.35;;
68718;SDS011;55696;52.138;5.444;2023-01-10T01:30:28;14.20;;;2.35;;
68718;SDS011;55696;52.138;5.444;2023-01-10T01:32:54;13.70;;;2.50;;
68718;SDS011;55696;52.138;5.444;2023-01-10T01:35:21;18.43;;;2.30;;
68718;SDS011;55696;52.138;5.444;2023-01-10T01:37:48;14.43;;;2.13;;
68718;SDS011;55696;52.138;5.444;2023-01-10T01:40:16;14.57;;;2.30;;
68718;SDS011;55696;52.138;5.444;2023-01-10T01:42:44;10.50;;;2.10;;
68718;SDS011;55696;52.138;5.444;2023-01-10T01:45:32;12.23;;;2.17;;
68718;SDS011;55696;52.138;5.444;2023-01-10T01:50:45;14.35;;;2.33;;
68718;SDS011;55696;52.138;5.444;2023-01-10T01:53:25;9.43;;;1.92;;
68718;SDS011;55696;52.138;5.444;2023-01-10T01:55:54;9.77;;;2.05;;
68718;SDS011;55696;52.138;5.444;2023-01-10T01:58:26;20.52;;;2.67;;
68718;SDS011;55696;52.138;5.444;2023-01-10T02:01:00;12.57;;;2.77;;
68718;SDS011;55696;52.138;5.444;2023-01-10T02:03:28;14.18;;;2.67;;
68718;SDS011;55696;52.138;5.444;2023-01-10T02:05:55;10.23;;;1.77;;
68718;SDS011;55696;52.138;5.444;2023-01-10T02:08:22;14.75;;;2.47;;
68718;SDS011;55696;52.138;5.444;2023-01-10T02:10:54;8.68;;;2.65;;
68718;SDS011;55696;52.138;5.444;2023-01-10T02:13:28;11.37;;;2.03;;
68718;SDS011;55696;52.138;5.444;2023-01-10T02:15:56;14.38;;;3.00;;
68718;SDS011;55696;52.138;5.444;2023-01-10T02:18:23;18.95;;;2.30;;
68718;SDS011;55696;52.138;5.444;2023-01-10T02:21:05;15.43;;;2.17;;
68718;SDS011;55696;52.138;5.444;2023-01-10T02:26:23;13.77;;;2.27;;
68718;SDS011;55696;52.138;5.444;2023-01-10T02:35:28;15.48;;;3.15;;
68718;SDS011;55696;52.138;5.444;2023-01-10T02:38:15;12.32;;;2.28;;
68718;SDS011;55696;52.138;5.444;2023-01-10T02:43:38;15.90;;;1.85;;
68718;SDS011;55696;52.138;5.444;2023-01-10T02:46:16;9.60;;;2.13;;
68718;SDS011;55696;52.138;5.444;2023-01-10T02:48:51;19.35;;;2.58;;
68718;SDS011;55696;52.138;5.444;2023-01-10T02:51:20;12.75;;;2.25;;
68718;SDS011;55696;52.138;5.444;2023-01-10T02:53:50;15.93;;;2.40;;
68718;SDS011;55696;52.138;5.444;2023-01-10T02:57:08;10.77;;;1.83;;
68718;SDS011;55696;52.138;5.444;2023-01-10T02:59:58;16.23;;;2.28;;
68718;SDS011;55696;52.138;5.444;2023-01-10T03:05:12;13.13;;;1.75;;
68718;SDS011;55696;52.138;5.444;2023-01-10T03:11:07;12.27;;;2.65;;
68718;SDS011;55696;52.138;5.444;2023-01-10T03:16:20;10.75;;;1.75;;
68718;SDS011;55696;52.138;5.444;2023-01-10T03:19:00;23.63;;;2.55;;
68718;SDS011;55696;52.138;5.444;2023-01-10T03:21:32;15.23;;;2.30;;
68718;SDS011;55696;52.138;5.444;2023-01-10T03:24:02;13.23;;;1.92;;
68718;SDS011;55696;52.138;5.444;2023-01-10T03:26:46;8.05;;;2.03;;
68718;SDS011;55696;52.138;5.444;2023-01-10T03:32:39;12.63;;;2.30;;
68718;SDS011;55696;52.138;5.444;2023-01-10T03:35:07;16.20;;;2.53;;
68718;SDS011;55696;52.138;5.444;2023-01-10T03:37:43;15.57;;;2.70;;
68718;SDS011;55696;52.138;5.444;2023-01-10T03:40:16;15.50;;;1.90;;
68718;SDS011;55696;52.138;5.444;2023-01-10T03:42:59;20.30;;;2.35;;
68718;SDS011;55696;52.138;5.444;2023-01-10T03:45:58;13.98;;;2.17;;
68718;SDS011;55696;52.138;5.444;2023-01-10T03:48:32;14.33;;;2.00;;
68718;SDS011;55696;52.138;5.444;2023-01-10T03:51:02;7.45;;;1.95;;
68718;SDS011;55696;52.138;5.444;2023-01-10T03:53:31;12.52;;;2.13;;
68718;SDS011;55696;52.138;5.444;2023-01-10T03:55:59;14.55;;;2.08;;
68718;SDS011;55696;52.138;5.444;2023-01-10T03:58:29;16.65;;;2.30;;
68718;SDS011;55696;52.138;5.444;2023-01-10T04:00:56;16.43;;;2.40;;
68718;SDS011;55696;52.138;5.444;2023-01-10T04:03:23;13.00;;;2.05;;
68718;SDS011;55696;52.138;5.444;2023-01-10T04:05:50;15.73;;;2.30;;
68718;SDS011;55696;52.138;5.444;2023-01-10T04:08:17;11.27;;;2.53;;
68718;SDS011;55696;52.138;5.444;2023-01-10T04:10:44;13.23;;;2.45;;
68718;SDS011;55696;52.138;5.444;2023-01-10T04:13:13;8.33;;;2.30;;
68718;SDS011;55696;52.138;5.444;2023-01-10T04:15:40;15.13;;;2.90;;
68718;SDS011;55696;52.138;5.444;2023-01-10T04:18:06;10.07;;;2.22;;
68718;SDS011;55696;52.138;5.444;2023-01-10T04:20:33;10.32;;;1.98;;
68718;SDS011;55696;52.138;5.444;2023-01-10T04:23:00;18.75;;;2.58;;
68718;SDS011;55696;52.138;5.444;2023-01-10T04:25:27;18.60;;;2.63;;
68718;SDS011;55696;52.138;5.444;2023-01-10T04:27:53;10.38;;;2.15;;
68718;SDS011;55696;52.138;5.444;2023-01-10T04:30:20;13.40;;;2.30;;
68718;SDS011;55696;52.138;5.444;2023-01-10T04:32:47;16.70;;;2.50;;
68718;SDS011;55696;52.138;5.444;2023-01-10T04:35:14;10.55;;;2.38;;
68718;SDS011;55696;52.138;5.444;2023-01-10T04:37:41;13.93;;;2.60;;
68718;SDS011;55696;52.138;5.444;2023-01-10T04:40:09;17.27;;;2.75;;
68718;SDS011;55696;52.138;5.444;2023-01-10T04:42:36;15.93;;;2.75;;
68718;SDS011;55696;52.138;5.444;2023-01-10T04:45:03;16.10;;;2.10;;
68718;SDS011;55696;52.138;5.444;2023-01-10T04:47:30;14.45;;;2.72;;
68718;SDS011;55696;52.138;5.444;2023-01-10T04:49:57;9.07;;;2.00;;
68718;SDS011;55696;52.138;5.444;2023-01-10T04:52:23;15.48;;;1.80;;
68718;SDS011;55696;52.138;5.444;2023-01-10T04:54:52;15.90;;;2.10;;
68718;SDS011;55696;52.138;5.444;2023-01-10T04:57:19;16.10;;;2.40;;
68718;SDS011;55696;52.138;5.444;2023-01-10T04:59:45;20.45;;;2.47;;
68718;SDS011;55696;52.138;5.444;2023-01-10T05:02:12;13.43;;;2.47;;
68718;SDS011;55696;52.138;5.444;2023-01-10T05:04:39;15.15;;;2.45;;
68718;SDS011;55696;52.138;5.444;2023-01-10T05:07:06;19.67;;;2.58;;
68718;SDS011;55696;52.138;5.444;2023-01-10T05:09:32;10.48;;;2.20;;
68718;SDS011;55696;52.138;5.444;2023-01-10T05:11:59;14.40;;;2.72;;
68718;SDS011;55696;52.138;5.444;2023-01-10T05:14:26;13.60;;;2.40;;
68718;SDS011;55696;52.138;5.444;2023-01-10T05:16:53;12.70;;;1.75;;
68718;SDS011;55696;52.138;5.444;2023-01-10T05:19:19;15.35;;;2.65;;
68718;SDS011;55696;52.138;5.444;2023-01-10T05:21:46;22.17;;;2.70;;
68718;SDS011;55696;52.138;5.444;2023-01-10T05:24:13;14.73;;;2.60;;
68718;SDS011;55696;52.138;5.444;2023-01-10T05:26:40;12.13;;;2.37;;
68718;SDS011;55696;52.138;5.444;2023-01-10T05:29:08;21.05;;;3.42;;
68718;SDS011;55696;52.138;5.444;2023-01-10T05:31:41;19.88;;;3.25;;
68718;SDS011;55696;52.138;5.444;2023-01-10T05:34:10;14.02;;;2.42;;
68718;SDS011;55696;52.138;5.444;2023-01-10T05:36:38;21.70;;;2.28;;
68718;SDS011;55696;52.138;5.444;2023-01-10T05:39:05;17.43;;;2.70;;
68718;SDS011;55696;52.138;5.444;2023-01-10T05:41:32;16.48;;;2.40;;
68718;SDS011;55696;52.138;5.444;2023-01-10T05:43:58;12.27;;;2.25;;
68718;SDS011;55696;52.138;5.444;2023-01-10T05:46:25;18.13;;;2.58;;
68718;SDS011;55696;52.138;5.444;2023-01-10T05:48:52;18.00;;;3.08;;
68718;SDS011;55696;52.138;5.444;2023-01-10T05:51:19;18.80;;;2.80;;
68718;SDS011;55696;52.138;5.444;2023-01-10T05:53:45;22.17;;;2.75;;
68718;SDS011;55696;52.138;5.444;2023-01-10T05:56:13;15.77;;;2.25;;
68718;SDS011;55696;52.138;5.444;2023-01-10T05:58:40;13.00;;;2.50;;
68718;SDS011;55696;52.138;5.444;2023-01-10T06:01:07;18.25;;;2.97;;
68718;SDS011;55696;52.138;5.444;2023-01-10T06:03:35;16.80;;;2.90;;
68718;SDS011;55696;52.138;5.444;2023-01-10T06:06:02;14.85;;;2.78;;
68718;SDS011;55696;52.138;5.444;2023-01-10T06:08:29;21.83;;;2.60;;
68718;SDS011;55696;52.138;5.444;2023-01-10T06:10:55;13.57;;;1.90;;
68718;SDS011;55696;52.138;5.444;2023-01-10T06:13:22;14.43;;;2.50;;
68718;SDS011;55696;52.138;5.444;2023-01-10T06:15:49;20.63;;;3.00;;
68718;SDS011;55696;52.138;5.444;2023-01-10T06:18:16;17.73;;;2.42;;
68718;SDS011;55696;52.138;5.444;2023-01-10T06:20:43;21.60;;;3.45;;
68718;SDS011;55696;52.138;5.444;2023-01-10T06:23:10;20.50;;;3.15;;
68718;SDS011;55696;52.138;5.444;2023-01-10T06:25:38;22.63;;;3.72;;
68718;SDS011;55696;52.138;5.444;2023-01-10T06:28:07;25.20;;;3.20;;
68718;SDS011;55696;52.138;5.444;2023-01-10T06:30:34;14.20;;;2.33;;
68718;SDS011;55696;52.138;5.444;2023-01-10T06:33:02;18.75;;;2.95;;
68718;SDS011;55696;52.138;5.444;2023-01-10T06:35:30;14.40;;;2.65;;
68718;SDS011;55696;52.138;5.444;2023-01-10T06:37:57;14.13;;;3.10;;
68718;SDS011;55696;52.138;5.444;2023-01-10T06:40:24;15.73;;;3.60;;
68718;SDS011;55696;52.138;5.444;2023-01-10T06:42:52;20.83;;;3.17;;
68718;SDS011;55696;52.138;5.444;2023-01-10T06:45:19;19.25;;;3.38;;
68718;SDS011;55696;52.138;5.444;2023-01-10T06:47:46;14.45;;;2.78;;
68718;SDS011;55696;52.138;5.444;2023-01-10T06:50:13;16.58;;;2.55;;
68718;SDS011;55696;52.138;5.444;2023-01-10T06:52:39;15.37;;;2.87;;
68718;SDS011;55696;52.138;5.444;2023-01-10T06:55:07;15.57;;;3.13;;
68718;SDS011;55696;52.138;5.444;2023-01-10T06:57:34;9.82;;;2.60;;
68718;SDS011;55696;52.138;5.444;2023-01-10T07:00:04;14.38;;;3.22;;
68718;SDS011;55696;52.138;5.444;2023-01-10T07:02:32;17.08;;;3.05;;
68718;SDS011;55696;52.138;5.444;2023-01-10T07:04:59;15.83;;;3.37;;
68718;SDS011;55696;52.138;5.444;2023-01-10T07:07:25;18.85;;;3.00;;
68718;SDS011;55696;52.138;5.444;2023-01-10T07:09:52;18.35;;;3.67;;
68718;SDS011;55696;52.138;5.444;2023-01-10T07:12:19;18.90;;;3.10;;
68718;SDS011;55696;52.138;5.444;2023-01-10T07:14:45;18.33;;;3.35;;
68718;SDS011;55696;52.138;5.444;2023-01-10T07:17:12;17.60;;;3.57;;
68718;SDS011;55696;52.138;5.444;2023-01-10T07:19:39;23.25;;;3.13;;
68718;SDS011;55696;52.138;5.444;2023-01-10T07:22:06;22.20;;;3.72;;
68718;SDS011;55696;52.138;5.444;2023-01-10T07:24:33;17.60;;;3.67;;
68718;SDS011;55696;52.138;5.444;2023-01-10T07:27:00;16.52;;;3.10;;
68718;SDS011;55696;52.138;5.444;2023-01-10T07:29:27;25.23;;;3.40;;
68718;SDS011;55696;52.138;5.444;2023-01-10T07:31:53;25.80;;;3.38;;
68718;SDS011;55696;52.138;5.444;2023-01-10T07:34:20;22.30;;;3.17;;
68718;SDS011;55696;52.138;5.444;2023-01-10T07:36:47;15.23;;;3.20;;
68718;SDS011;55696;52.138;5.444;2023-01-10T07:39:14;18.67;;;3.60;;
68718;SDS011;55696;52.138;5.444;2023-01-10T07:41:40;15.13;;;2.43;;
68718;SDS011;55696;52.138;5.444;2023-01-10T07:44:07;18.20;;;3.35;;
68718;SDS011;55696;52.138;5.444;2023-01-10T07:46:34;14.52;;;3.53;;
68718;SDS011;55696;52.138;5.444;2023-01-10T07:49:01;22.35;;;2.92;;
68718;SDS011;55696;52.138;5.444;2023-01-10T07:51:28;23.00;;;3.53;;
68718;SDS011;55696;52.138;5.444;2023-01-10T07:53:55;14.53;;;3.70;;
68718;SDS011;55696;52.138;5.444;2023-01-10T07:56:21;20.85;;;3.55;;
68718;SDS011;55696;52.138;5.444;2023-01-10T07:58:49;15.60;;;3.55;;
68718;SDS011;55696;52.138;5.444;2023-01-10T08:01:15;20.90;;;3.85;;
68718;SDS011;55696;52.138;5.444;2023-01-10T08:03:42;17.10;;;4.63;;
68718;SDS011;55696;52.138;5.444;2023-01-10T08:06:09;18.63;;;4.17;;
68718;SDS011;55696;52.138;5.444;2023-01-10T08:08:36;24.17;;;3.90;;
68718;SDS011;55696;52.138;5.444;2023-01-10T08:11:04;21.52;;;3.38;;
68718;SDS011;55696;52.138;5.444;2023-01-10T08:13:31;24.67;;;3.95;;
68718;SDS011;55696;52.138;5.444;2023-01-10T08:15:58;19.95;;;3.92;;
68718;SDS011;55696;52.138;5.444;2023-01-10T08:18:25;27.63;;;5.13;;
68718;SDS011;55696;52.138;5.444;2023-01-10T08:20:53;21.15;;;3.63;;
68718;SDS011;55696;52.138;5.444;2023-01-10T08:23:20;16.90;;;3.83;;
68718;SDS011;55696;52.138;5.444;2023-01-10T08:25:47;26.23;;;4.40;;
68718;SDS011;55696;52.138;5.444;2023-01-10T08:28:15;27.75;;;4.35;;
68718;SDS011;55696;52.138;5.444;2023-01-10T08:30:42;19.07;;;4.10;;
68718;SDS011;55696;52.138;5.444;2023-01-10T08:33:09;17.58;;;4.03;;
68718;SDS011;55696;52.138;5.444;2023-01-10T08:35:37;18.48;;;3.85;;
68718;SDS011;55696;52.138;5.444;2023-01-10T08:38:09;23.65;;;4.13;;
68718;SDS011;55696;52.138;5.444;2023-01-10T08:40:36;21.88;;;4.75;;
68718;SDS011;55696;52.138;5.444;2023-01-10T08:43:04;19.60;;;4.40;;
68718;SDS011;55696;52.138;5.444;2023-01-10T08:45:33;21.83;;;4.53;;
68718;SDS011;55696;52.138;5.444;2023-01-10T08:48:01;16.75;;;4.15;;
68718;SDS011;55696;52.138;5.444;2023-01-10T08:50:28;15.02;;;3.67;;
68718;SDS011;55696;52.138;5.444;2023-01-10T08:52:56;19.52;;;4.28;;
68718;SDS011;55696;52.138;5.444;2023-01-10T08:55:24;17.50;;;3.90;;
68718;SDS011;55696;52.138;5.444;2023-01-10T08:57:52;16.50;;;3.83;;
68718;SDS011;55696;52.138;5.444;2023-01-10T09:00:19;22.73;;;4.22;;
68718;SDS011;55696;52.138;5.444;2023-01-10T09:02:46;18.80;;;3.70;;
68718;SDS011;55696;52.138;5.444;2023-01-10T09:05:13;20.65;;;4.05;;
68718;SDS011;55696;52.138;5.444;2023-01-10T09:07:52;18.07;;;4.93;;
68718;SDS011;55696;52.138;5.444;2023-01-10T09:10:22;20.95;;;3.28;;
68718;SDS011;55696;52.138;5.444;2023-01-10T09:12:49;23.85;;;4.10;;
68718;SDS011;55696;52.138;5.444;2023-01-10T09:15:23;24.98;;;4.10;;
68718;SDS011;55696;52.138;5.444;2023-01-10T09:17:53;18.70;;;3.10;;
68718;SDS011;55696;52.138;5.444;2023-01-10T09:20:25;22.23;;;4.20;;
68718;SDS011;55696;52.138;5.444;2023-01-10T09:22:53;23.55;;;3.75;;
68718;SDS011;55696;52.138;5.444;2023-01-10T09:25:20;16.35;;;4.57;;
68718;SDS011;55696;52.138;5.444;2023-01-10T09:27:47;16.67;;;3.42;;
68718;SDS011;55696;52.138;5.444;2023-01-10T09:30:21;20.27;;;4.03;;
68718;SDS011;55696;52.138;5.444;2023-01-10T09:32:49;28.77;;;4.93;;
68718;SDS011;55696;52.138;5.444;2023-01-10T09:35:17;15.63;;;4.55;;
68718;SDS011;55696;52.138;5.444;2023-01-10T09:37:44;21.05;;;3.75;;
68718;SDS011;55696;52.138;5.444;2023-01-10T09:40:19;23.45;;;4.70;;
68718;SDS011;55696;52.138;5.444;2023-01-10T09:46:06;22.23;;;4.00;;
68718;SDS011;55696;52.138;5.444;2023-01-10T09:49:15;19.38;;;3.65;;
68718;SDS011;55696;52.138;5.444;2023-01-10T09:51:57;20.25;;;3.88;;
68718;SDS011;55696;52.138;5.444;2023-01-10T09:54:26;23.17;;;4.28;;
68718;SDS011;55696;52.138;5.444;2023-01-10T09:56:57;28.00;;;3.92;;
68718;SDS011;55696;52.138;5.444;2023-01-10T09:59:30;19.50;;;4.17;;
68718;SDS011;55696;52.138;5.444;2023-01-10T10:04:45;16.67;;;2.83;;
68718;SDS011;55696;52.138;5.444;2023-01-10T10:07:26;14.40;;;3.40;;
68718;SDS011;55696;52.138;5.444;2023-01-10T10:09:53;21.30;;;3.72;;
68718;SDS011;55696;52.138;5.444;2023-01-10T10:20:27;15.70;;;3.55;;
68718;SDS011;55696;52.138;5.444;2023-01-10T10:25:53;23.90;;;3.63;;
68718;SDS011;55696;52.138;5.444;2023-01-10T10:34:43;17.40;;;3.55;;
68718;SDS011;55696;52.138;5.444;2023-01-10T10:37:22;15.95;;;3.30;;
68718;SDS011;55696;52.138;5.444;2023-01-10T10:39:59;17.97;;;3.20;;
68718;SDS011;55696;52.138;5.444;2023-01-10T10:42:32;19.83;;;3.85;;
68718;SDS011;55696;52.138;5.444;2023-01-10T10:45:05;17.40;;;3.83;;
68718;SDS011;55696;52.138;5.444;2023-01-10T10:47:35;31.50;;;3.92;;
68718;SDS011;55696;52.138;5.444;2023-01-10T10:52:44;21.10;;;3.70;;
68718;SDS011;55696;52.138;5.444;2023-01-10T10:55:13;17.52;;;3.97;;
68718;SDS011;55696;52.138;5.444;2023-01-10T10:57:54;28.33;;;3.80;;
68718;SDS011;55696;52.138;5.444;2023-01-10T11:00:26;25.55;;;3.92;;
68718;SDS011;55696;52.138;5.444;2023-01-10T11:05:50;23.63;;;3.47;;
68718;SDS011;55696;52.138;5.444;2023-01-10T11:08:16;20.17;;;3.55;;
68718;SDS011;55696;52.138;5.444;2023-01-10T11:10:47;18.83;;;3.50;;
68718;SDS011;55696;52.138;5.444;2023-01-10T11:15:59;19.10;;;3.72;;
68718;SDS011;55696;52.138;5.444;2023-01-10T11:18:29;16.07;;;2.97;;
68718;SDS011;55696;52.138;5.444;2023-01-10T11:21:01;24.10;;;4.43;;
68718;SDS011;55696;52.138;5.444;2023-01-10T11:26:08;23.33;;;3.15;;
68718;SDS011;55696;52.138;5.444;2023-01-10T11:28:52;10.55;;;2.67;;
68718;SDS011;55696;52.138;5.444;2023-01-10T11:31:30;20.43;;;3.67;;
68718;SDS011;55696;52.138;5.444;2023-01-10T11:33:58;25.95;;;3.45;;
68718;SDS011;55696;52.138;5.444;2023-01-10T11:36:35;20.95;;;3.70;;
68718;SDS011;55696;52.138;5.444;2023-01-10T11:39:22;21.60;;;3.70;;
68718;SDS011;55696;52.138;5.444;2023-01-10T11:41:49;25.95;;;3.20;;
68718;SDS011;55696;52.138;5.444;2023-01-10T11:44:25;16.93;;;3.10;;
68718;SDS011;55696;52.138;5.444;2023-01-10T11:46:55;22.23;;;3.28;;
68718;SDS011;55696;52.138;5.444;2023-01-10T11:51:55;16.65;;;3.33;;
68718;SDS011;55696;52.138;5.444;2023-01-10T11:54:27;15.45;;;2.95;;
68718;SDS011;55696;52.138;5.444;2023-01-10T11:56:59;15.20;;;3.23;;
68718;SDS011;55696;52.138;5.444;2023-01-10T11:59:32;16.55;;;3.08;;
68718;SDS011;55696;52.138;5.444;2023-01-10T12:02:01;18.20;;;3.45;;
68718;SDS011;55696;52.138;5.444;2023-01-10T12:04:38;24.77;;;3.17;;
68718;SDS011;55696;52.138;5.444;2023-01-10T12:07:08;16.45;;;2.42;;
68718;SDS011;55696;52.138;5.444;2023-01-10T12:12:10;11.15;;;2.78;;
68718;SDS011;55696;52.138;5.444;2023-01-10T12:14:45;20.85;;;3.40;;
68718;SDS011;55696;52.138;5.444;2023-01-10T12:17:34;14.02;;;3.03;;
68718;SDS011;55696;52.138;5.444;2023-01-10T12:20:01;22.77;;;3.83;;
68718;SDS011;55696;52.138;5.444;2023-01-10T12:25:02;17.58;;;3.30;;
68718;SDS011;55696;52.138;5.444;2023-01-10T12:27:50;22.08;;;3.70;;
68718;SDS011;55696;52.138;5.444;2023-01-10T12:30:23;11.70;;;2.50;;
68718;SDS011;55696;52.138;5.444;2023-01-10T12:32:56;12.25;;;3.08;;
68718;SDS011;55696;52.138;5.444;2023-01-10T12:38:09;16.85;;;3.10;;
68718;SDS011;55696;52.138;5.444;2023-01-10T12:40:48;23.05;;;4.03;;
68718;SDS011;55696;52.138;5.444;2023-01-10T12:43:26;16.73;;;3.22;;
68718;SDS011;55696;52.138;5.444;2023-01-10T12:46:22;11.60;;;2.88;;
68718;SDS011;55696;52.138;5.444;2023-01-10T12:49:20;15.40;;;3.70;;
68718;SDS011;55696;52.138;5.444;2023-01-10T12:51:52;14.35;;;3.20;;
68718;SDS011;55696;52.138;5.444;2023-01-10T12:54:24;18.30;;;3.20;;
68718;SDS011;55696;52.138;5.444;2023-01-10T12:56:54;14.57;;;2.80;;
68718;SDS011;55696;52.138;5.444;2023-01-10T12:59:25;16.00;;;3.00;;
68718;SDS011;55696;52.138;5.444;2023-01-10T13:02:04;14.50;;;3.20;;
68718;SDS011;55696;52.138;5.444;2023-01-10T13:04:40;17.35;;;3.35;;
68718;SDS011;55696;52.138;5.444;2023-01-10T13:07:12;14.63;;;3.20;;
68718;SDS011;55696;52.138;5.444;2023-01-10T13:09:40;21.38;;;3.60;;
68718;SDS011;55696;52.138;5.444;2023-01-10T13:12:19;15.48;;;2.90;;
68718;SDS011;55696;52.138;5.444;2023-01-10T13:15:04;16.33;;;2.50;;
68718;SDS011;55696;52.138;5.444;2023-01-10T13:22:48;29.13;;;4.07;;
68718;SDS011;55696;52.138;5.444;2023-01-10T13:30:43;16.30;;;3.88;;
68718;SDS011;55696;52.138;5.444;2023-01-10T13:33:19;16.17;;;3.08;;
68718;SDS011;55696;52.138;5.444;2023-01-10T13:35:49;13.57;;;2.83;;
68718;SDS011;55696;52.138;5.444;2023-01-10T13:38:18;21.10;;;3.95;;
68718;SDS011;55696;52.138;5.444;2023-01-10T13:40:55;13.13;;;3.03;;
68718;SDS011;55696;52.138;5.444;2023-01-10T13:43:24;19.92;;;3.20;;
68718;SDS011;55696;52.138;5.444;2023-01-10T13:51:29;18.95;;;4.10;;
68718;SDS011;55696;52.138;5.444;2023-01-10T13:59:58;19.65;;;3.85;;
68718;SDS011;55696;52.138;5.444;2023-01-10T14:02:16;18.73;;;3.53;;
68718;SDS011;55696;52.138;5.444;2023-01-10T14:10:10;24.33;;;3.97;;
68718;SDS011;55696;52.138;5.444;2023-01-10T14:12:49;14.63;;;2.90;;
68718;SDS011;55696;52.138;5.444;2023-01-10T14:15:23;16.10;;;3.25;;
68718;SDS011;55696;52.138;5.444;2023-01-10T14:17:58;27.05;;;3.53;;
68718;SDS011;55696;52.138;5.444;2023-01-10T14:20:28;11.97;;;2.70;;
68718;SDS011;55696;52.138;5.444;2023-01-10T14:22:59;20.48;;;3.00;;
68718;SDS011;55696;52.138;5.444;2023-01-10T14:25:41;19.23;;;3.80;;
68718;SDS011;55696;52.138;5.444;2023-01-10T14:28:18;17.23;;;3.60;;
68718;SDS011;55696;52.138;5.444;2023-01-10T14:31:08;17.30;;;3.72;;
68718;SDS011;55696;52.138;5.444;2023-01-10T14:33:44;22.07;;;4.23;;
68718;SDS011;55696;52.138;5.444;2023-01-10T14:36:16;16.10;;;3.45;;
68718;SDS011;55696;52.138;5.444;2023-01-10T14:38:51;17.77;;;3.85;;
68718;SDS011;55696;52.138;5.444;2023-01-10T14:41:33;17.40;;;3.22;;
68718;SDS011;55696;52.138;5.444;2023-01-10T14:44:39;19.98;;;3.15;;
68718;SDS011;55696;52.138;5.444;2023-01-10T14:47:00;25.73;;;3.83;;
68718;SDS011;55696;52.138;5.444;2023-01-10T14:49:33;23.25;;;4.05;;
68718;SDS011;55696;52.138;5.444;2023-01-10T14:54:41;13.95;;;2.65;;
68718;SDS011;55696;52.138;5.444;2023-01-10T14:57:18;14.60;;;2.65;;
68718;SDS011;55696;52.138;5.444;2023-01-10T14:59:46;14.90;;;2.60;;
68718;SDS011;55696;52.138;5.444;2023-01-10T15:05:20;16.88;;;4.03;;
68718;SDS011;55696;52.138;5.444;2023-01-10T15:07:44;14.40;;;3.17;;
68718;SDS011;55696;52.138;5.444;2023-01-10T15:10:21;17.52;;;3.10;;
68718;SDS011;55696;52.138;5.444;2023-01-10T15:12:55;16.57;;;3.00;;
68718;SDS011;55696;52.138;5.444;2023-01-10T15:15:30;14.98;;;3.25;;
68718;SDS011;55696;52.138;5.444;2023-01-10T15:18:06;17.60;;;3.45;;
68718;SDS011;55696;52.138;5.444;2023-01-10T15:20:52;12.18;;;3.42;;
68718;SDS011;55696;52.138;5.444;2023-01-10T15:23:19;15.60;;;4.38;;
68718;SDS011;55696;52.138;5.444;2023-01-10T15:25:53;14.40;;;2.97;;
68718;SDS011;55696;52.138;5.444;2023-01-10T15:28:25;16.67;;;3.20;;
68718;SDS011;55696;52.138;5.444;2023-01-10T15:30:54;15.73;;;2.70;;
68718;SDS011;55696;52.138;5.444;2023-01-10T15:33:27;18.73;;;3.30;;
68718;SDS011;55696;52.138;5.444;2023-01-10T15:35:55;14.15;;;2.63;;
68718;SDS011;55696;52.138;5.444;2023-01-10T15:38:27;19.87;;;4.20;;
68718;SDS011;55696;52.138;5.444;2023-01-10T15:40:59;19.85;;;3.53;;
68718;SDS011;55696;52.138;5.444;2023-01-10T15:43:29;15.95;;;3.33;;
68718;SDS011;55696;52.138;5.444;2023-01-10T15:45:58;14.93;;;2.83;;
68718;SDS011;55696;52.138;5.444;2023-01-10T15:48:33;17.83;;;2.60;;
68718;SDS011;55696;52.138;5.444;2023-01-10T15:53:56;11.77;;;2.17;;
68718;SDS011;55696;52.138;5.444;2023-01-10T15:59:20;14.38;;;3.22;;
68718;SDS011;55696;52.138;5.444;2023-01-10T16:01:53;13.30;;;3.10;;
68718;SDS011;55696;52.138;5.444;2023-01-10T16:04:23;15.10;;;2.73;;
68718;SDS011;55696;52.138;5.444;2023-01-10T16:06:51;18.65;;;3.53;;
68718;SDS011;55696;52.138;5.444;2023-01-10T16:09:29;13.20;;;2.83;;
68718;SDS011;55696;52.138;5.444;2023-01-10T16:11:56;13.05;;;2.50;;
68718;SDS011;55696;52.138;5.444;2023-01-10T16:14:42;14.73;;;2.50;;
68718;SDS011;55696;52.138;5.444;2023-01-10T16:17:08;14.90;;;2.90;;
68718;SDS011;55696;52.138;5.444;2023-01-10T16:19:37;10.07;;;3.03;;
68718;SDS011;55696;52.138;5.444;2023-01-10T16:22:04;18.80;;;4.03;;
68718;SDS011;55696;52.138;5.444;2023-01-10T16:24:32;13.25;;;2.78;;
68718;SDS011;55696;52.138;5.444;2023-01-10T16:27:03;8.40;;;2.75;;
68718;SDS011;55696;52.138;5.444;2023-01-10T16:29:31;7.83;;;2.77;;
68718;SDS011;55696;52.138;5.444;2023-01-10T16:31:58;12.23;;;3.63;;
68718;SDS011;55696;52.138;5.444;2023-01-10T16:34:25;7.72;;;2.95;;
68718;SDS011;55696;52.138;5.444;2023-01-10T16:36:52;9.05;;;2.42;;
68718;SDS011;55696;52.138;5.444;2023-01-10T16:39:20;7.50;;;2.28;;
68718;SDS011;55696;52.138;5.444;2023-01-10T16:41:48;7.07;;;2.50;;
68718;SDS011;55696;52.138;5.444;2023-01-10T16:44:34;7.07;;;1.60;;
68718;SDS011;55696;52.138;5.444;2023-01-10T16:47:01;9.75;;;2.95;;